Time;durP1;ratioP1;P1;durP2;ratioP2;P2;SDS_P1;SDS_P2;PMS_P1;PMS_P2;Temp;Humidity;BMP_temperature;BMP_pressure;BME280_temperature;BME280_humidity;BME280_pressure;Samples;Min_cycle;Max_cycle;Signal;HPM_P1;HPM_P2
2021/01/27 00:01:10;;;;;;;27.95;15.75;;;;;;;4.40;73.67;99751.69;5033953;28;20053;-79
2021/01/27 00:03:36;;;;;;;31.40;17.58;;;;;;;4.42;74.03;99741.25;5033330;28;20115;-80
2021/01/27 00:06:02;;;;;;;28.13;17.30;;;;;;;4.41;74.06;99742.97;5034452;28;20054;-79
2021/01/27 00:08:28;;;;;;;30.88;18.60;;;;;;;4.43;73.96;99748.16;5034551;28;20115;-79
2021/01/27 00:10:54;;;;;;;31.15;17.63;;;;;;;4.43;74.00;99748.16;5034363;28;20468;-79
2021/01/27 00:13:20;;;;;;;33.35;18.70;;;;;;;4.43;73.73;99737.72;5033852;28;20049;-79
2021/01/27 00:15:47;;;;;;;33.78;17.80;;;;;;;4.42;73.61;99736.03;5016428;28;20516;-79
2021/01/27 00:18:16;;;;;;;28.88;17.45;;;;;;;4.40;73.63;99727.38;5034077;28;20045;-79
2021/01/27 00:20:42;;;;;;;25.95;17.67;;;;;;;4.40;73.71;99728.25;5016179;28;20494;-79
2021/01/27 00:23:09;;;;;;;27.88;17.60;;;;;;;4.37;73.78;99722.28;5033709;28;20050;-79
2021/01/27 00:25:37;;;;;;;29.67;18.45;;;;;;;4.34;73.48;99725.00;5034178;28;20053;-79
2021/01/27 00:28:05;;;;;;;31.08;18.33;;;;;;;4.30;73.40;99725.06;5034004;28;20076;-79
2021/01/27 00:30:34;;;;;;;28.67;19.05;;;;;;;4.27;73.10;99717.34;5033735;28;20050;-79
2021/01/27 00:33:01;;;;;;;31.27;19.17;;;;;;;4.25;73.73;99719.16;5033693;28;20049;-79
2021/01/27 00:35:31;;;;;;;30.30;18.98;;;;;;;4.23;73.49;99714.91;5033735;28;20136;-79
2021/01/27 00:37:59;;;;;;;28.70;18.95;;;;;;;4.22;73.56;99724.47;5033799;28;20489;-79
2021/01/27 00:40:25;;;;;;;30.55;18.55;;;;;;;4.20;73.27;99717.59;5033675;28;20049;-79
2021/01/27 00:42:51;;;;;;;30.90;19.25;;;;;;;4.17;73.38;99713.34;5033464;28;20107;-79
2021/01/27 00:45:19;;;;;;;30.30;18.58;;;;;;;4.15;73.78;99697.75;5033659;28;20453;-80
2021/01/27 00:47:45;;;;;;;30.08;20.08;;;;;;;4.13;73.46;99702.16;5025659;28;20055;-79
2021/01/27 00:50:12;;;;;;;39.40;20.90;;;;;;;4.12;73.47;99697.00;5033560;28;20433;-79
2021/01/27 00:52:38;;;;;;;33.53;20.05;;;;;;;4.10;73.44;99701.38;5033225;28;20560;-79
2021/01/27 00:55:12;;;;;;;30.45;19.73;;;;;;;4.04;72.88;99694.66;5033541;28;20418;-79
2021/01/27 00:57:38;;;;;;;30.33;18.85;;;;;;;4.06;73.50;99702.38;5033599;28;20468;-79
2021/01/27 01:00:13;;;;;;;34.45;20.60;;;;;;;4.02;73.22;99702.50;5033238;28;20103;-79
2021/01/27 01:02:39;;;;;;;33.97;19.85;;;;;;;4.02;73.74;99696.44;5093727;23;20053;-85
2021/01/27 01:05:09;;;;;;;29.55;18.40;;;;;;;4.00;73.59;99706.88;5046820;28;20053;-83
2021/01/27 01:07:35;;;;;;;31.02;18.30;;;;;;;4.01;73.65;99707.75;5052348;28;20095;-83
2021/01/27 01:10:07;;;;;;;29.42;18.70;;;;;;;4.00;73.38;99704.28;5053726;28;20543;-85
2021/01/27 01:12:33;;;;;;;26.27;17.55;;;;;;;4.01;73.92;99707.75;5050826;28;20110;-84
2021/01/27 01:14:59;;;;;;;29.17;17.65;;;;;;;3.99;73.78;99705.19;5056284;28;20068;-85
2021/01/27 01:17:26;;;;;;;26.92;17.60;;;;;;;4.00;73.55;99717.31;5053936;28;20131;-84
2021/01/27 01:19:52;;;;;;;27.48;17.27;;;;;;;4.00;73.72;99701.69;5058161;28;20080;-85
2021/01/27 01:22:18;;;;;;;28.45;16.85;;;;;;;4.02;74.13;99699.91;5052573;28;20052;-83
2021/01/27 01:24:44;;;;;;;29.65;17.27;;;;;;;4.02;73.96;99693.81;5056340;28;20045;-85
2021/01/27 01:27:10;;;;;;;32.08;18.15;;;;;;;4.03;73.58;99704.19;5051595;28;20099;-84
2021/01/27 01:29:37;;;;;;;25.00;16.67;;;;;;;4.04;73.78;99700.69;5056070;28;20049;-85
2021/01/27 01:32:03;;;;;;;25.35;16.65;;;;;;;4.04;73.88;99711.09;5057443;28;20060;-86
2021/01/27 01:34:29;;;;;;;27.90;17.30;;;;;;;4.05;73.60;99706.75;5057527;28;20045;-84
2021/01/27 01:36:55;;;;;;;25.70;16.13;;;;;;;4.06;73.89;99708.47;5049544;28;20053;-85
2021/01/27 01:39:21;;;;;;;30.05;17.17;;;;;;;4.06;73.69;99697.19;5056053;28;20049;-84
2021/01/27 01:41:48;;;;;;;24.67;15.75;;;;;;;4.06;73.52;99692.84;5048304;28;20045;-83
2021/01/27 01:44:14;;;;;;;20.70;13.98;;;;;;;4.05;73.39;99693.75;5055912;28;20048;-84
2021/01/27 01:46:40;;;;;;;29.08;15.35;;;;;;;4.07;73.71;99698.91;5057007;28;20521;-84
2021/01/27 01:49:10;;;;;;;20.88;14.45;;;;;;;4.07;73.07;99683.28;5053466;28;20405;-86
2021/01/27 01:52:01;;;;;;;23.95;14.80;;;;;;;4.07;73.21;99680.66;5055604;28;20409;-85
2021/01/27 01:54:39;;;;;;;20.30;13.13;;;;;;;4.04;72.63;99679.84;5054966;28;20489;-86
2021/01/27 01:57:12;;;;;;;27.42;13.50;;;;;;;4.05;73.13;99678.09;5050726;28;20045;-84
2021/01/27 01:59:45;;;;;;;20.67;14.07;;;;;;;4.05;72.83;99680.72;5056184;28;20122;-83
2021/01/27 02:02:11;;;;;;;23.25;13.25;;;;;;;4.07;73.32;99684.09;5056491;28;20045;-84
2021/01/27 02:04:53;;;;;;;22.92;13.75;;;;;;;4.04;72.45;99679.00;5056986;28;20460;-84
2021/01/27 02:07:20;;;;;;;18.92;12.70;;;;;;;4.07;73.40;99672.84;5052094;28;20049;-84
2021/01/27 02:09:46;;;;;;;21.40;13.15;;;;;;;4.06;73.10;99673.72;5056776;28;20053;-84
2021/01/27 02:12:37;;;;;;;21.50;13.30;;;;;;;4.04;72.37;99666.81;5050633;28;20057;-85
2021/01/27 02:15:34;;;;;;;20.23;13.20;;;;;;;4.02;71.27;99665.16;5055368;28;20049;-84
2021/01/27 02:18:14;;;;;;;20.00;13.05;;;;;;;4.02;72.39;99650.41;5055388;28;20405;-84
2021/01/27 02:20:52;;;;;;;20.60;13.90;;;;;;;4.00;72.02;99641.78;5055794;28;20060;-83
2021/01/27 02:23:49;;;;;;;21.60;13.15;;;;;;;3.97;71.57;99646.25;5056374;28;20041;-84
2021/01/27 02:26:27;;;;;;;20.52;12.23;;;;;;;3.97;71.81;99649.72;5050323;28;20055;-84
2021/01/27 02:29:30;;;;;;;20.52;13.07;;;;;;;3.93;71.44;99645.50;5055556;28;20056;-85
2021/01/27 02:32:32;;;;;;;23.60;13.13;;;;;;;3.90;71.31;99635.16;5056566;28;20103;-84
2021/01/27 02:35:05;;;;;;;19.05;12.13;;;;;;;3.92;72.26;99628.13;5057346;28;20482;-84
2021/01/27 02:37:45;;;;;;;19.67;12.80;;;;;;;3.89;72.20;99629.09;5053243;28;20045;-84
2021/01/27 02:40:19;;;;;;;23.38;12.90;;;;;;;3.89;72.20;99628.25;5056419;28;20052;-85
2021/01/27 02:42:53;;;;;;;18.58;12.20;;;;;;;3.88;72.22;99626.53;5047644;28;20448;-84
2021/01/27 02:45:27;;;;;;;22.67;13.98;;;;;;;3.86;71.14;99624.00;5051754;28;20482;-84
2021/01/27 02:48:11;;;;;;;20.25;12.80;;;;;;;3.86;72.15;99615.31;5054895;28;20486;-84
2021/01/27 02:50:40;;;;;;;18.42;11.68;;;;;;;3.86;72.18;99613.59;5055304;28;20079;-84
2021/01/27 02:53:18;;;;;;;18.33;12.18;;;;;;;3.85;71.84;99611.84;5049586;28;20098;-84
2021/01/27 02:55:51;;;;;;;18.70;11.05;;;;;;;3.85;72.11;99611.84;5055540;28;20056;-84
2021/01/27 02:58:24;;;;;;;20.92;12.20;;;;;;;3.85;72.40;99605.81;5057084;28;20493;-84
2021/01/27 03:00:53;;;;;;;;;;;;;;;3.87;71.09;99612.69;5047416;28;20122;-84
2021/01/27 03:03:25;;;;;;;16.75;10.80;;;;;;;3.90;71.98;99611.72;5055837;28;19921;-84
2021/01/27 03:05:59;;;;;;;16.20;10.98;;;;;;;3.85;71.73;99593.63;5055999;28;20409;-83
2021/01/27 03:08:29;;;;;;;20.85;11.73;;;;;;;3.84;72.22;99586.72;5056106;28;20390;-84
2021/01/27 03:11:24;;;;;;;18.10;11.32;;;;;;;3.79;70.51;99586.03;5055919;28;20053;-83
2021/01/27 03:13:50;;;;;;;15.63;11.10;;;;;;;3.82;72.46;99595.50;5044066;28;20045;-84
2021/01/27 03:16:26;;;;;;;17.27;10.88;;;;;;;3.77;71.64;99599.09;5054256;28;20056;-83
2021/01/27 03:19:10;;;;;;;22.42;11.02;;;;;;;3.76;71.15;99586.97;5055703;28;20493;-84
2021/01/27 03:21:49;;;;;;;19.70;11.73;;;;;;;3.74;70.94;99583.56;5053088;28;20056;-83
2021/01/27 03:24:20;;;;;;;19.10;10.93;;;;;;;3.76;71.82;99578.31;5057320;28;20049;-84
2021/01/27 03:27:06;;;;;;;18.83;11.20;;;;;;;3.72;70.79;99574.09;5055739;28;20061;-85
2021/01/27 03:29:38;;;;;;;16.63;10.70;;;;;;;3.73;72.13;99574.06;5056692;28;20056;-83
2021/01/27 03:32:11;;;;;;;19.77;10.83;;;;;;;3.71;71.45;99573.25;5055163;28;20444;-84
2021/01/27 03:34:42;;;;;;;16.75;10.95;;;;;;;3.71;71.62;99582.81;5055840;28;20045;-84
2021/01/27 03:37:15;;;;;;;17.13;10.45;;;;;;;3.69;71.22;99563.78;5049168;28;20052;-85
2021/01/27 03:39:46;;;;;;;15.75;9.73;;;;;;;3.70;72.04;99576.75;5054187;28;20049;-84
2021/01/27 03:42:21;;;;;;;16.63;10.13;;;;;;;3.68;71.51;99575.09;5047614;28;20114;-84
2021/01/27 03:44:57;;;;;;;16.45;10.57;;;;;;;3.65;69.31;99568.22;5053990;28;20049;-83
2021/01/27 03:47:50;;;;;;;17.15;10.18;;;;;;;3.65;70.43;99558.69;5055001;28;20053;-84
2021/01/27 03:50:20;;;;;;;;;;;;;;;3.68;69.46;99557.72;5050190;28;20055;-84
2021/01/27 03:53:00;;;;;;;14.95;9.65;;;;;;;3.66;69.82;99549.09;5054983;28;19975;-84
2021/01/27 03:55:53;;;;;;;15.00;9.40;;;;;;;3.62;68.85;99545.75;5054969;28;20052;-85
2021/01/27 03:58:19;;;;;;;13.73;9.15;;;;;;;3.64;71.47;99536.16;5050489;28;20079;-84
2021/01/27 04:00:46;;;;;;;18.00;9.98;;;;;;;3.62;71.55;99524.06;5052807;28;20045;-84
2021/01/27 04:03:21;;;;;;;16.90;9.10;;;;;;;3.58;70.09;99530.28;5053272;28;20053;-85
2021/01/27 04:05:48;;;;;;;14.70;9.15;;;;;;;3.59;71.03;99521.59;5053353;28;20045;-84
2021/01/27 04:08:15;;;;;;;13.82;8.77;;;;;;;3.59;71.37;99524.19;5054525;28;20531;-84
2021/01/27 04:10:41;;;;;;;17.42;9.65;;;;;;;3.57;71.19;99528.56;5052905;28;20053;-86
2021/01/27 04:13:08;;;;;;;13.60;9.02;;;;;;;3.57;71.01;99528.56;5048378;28;20052;-85
2021/01/27 04:15:34;;;;;;;13.05;8.35;;;;;;;3.56;71.36;99532.09;5056654;28;20041;-85
2021/01/27 04:18:01;;;;;;;14.30;8.38;;;;;;;3.55;70.99;99533.00;5049346;28;20052;-83
2021/01/27 04:20:28;;;;;;;15.35;8.32;;;;;;;3.52;70.90;99526.97;5054611;28;20048;-85
2021/01/27 04:22:56;;;;;;;14.32;8.35;;;;;;;3.53;70.82;99525.22;5046046;28;20391;-84
2021/01/27 04:25:22;;;;;;;14.05;8.02;;;;;;;3.52;71.12;99520.94;5054246;28;20052;-85
2021/01/27 04:27:49;;;;;;;14.00;7.78;;;;;;;3.51;70.94;99525.28;5045684;28;20406;-86
2021/01/27 04:30:21;;;;;;;13.25;7.82;;;;;;;3.53;70.89;99525.22;5054080;28;20055;-85
2021/01/27 04:32:47;;;;;;;8.10;5.70;;;;;;;3.54;70.68;99521.72;5053881;28;20049;-84
2021/01/27 04:35:15;;;;;;;11.90;8.02;;;;;;;3.54;70.94;99518.28;5055632;28;20469;-84
2021/01/27 04:37:42;;;;;;;11.50;7.22;;;;;;;3.55;70.99;99522.59;5052749;28;20048;-85
2021/01/27 04:40:30;;;;;;;17.35;7.60;;;;;;;3.54;70.54;99519.13;5047977;28;20099;-84
2021/01/27 04:42:57;;;;;;;11.07;7.07;;;;;;;3.56;70.89;99508.66;5054259;28;20436;-83
2021/01/27 04:45:23;;;;;;;10.70;7.13;;;;;;;3.56;71.03;99506.91;5050027;28;20044;-84
2021/01/27 04:47:52;;;;;;;14.00;7.07;;;;;;;3.55;70.50;99497.38;5045357;28;20053;-83
2021/01/27 04:50:27;;;;;;;11.43;6.85;;;;;;;3.56;70.16;99493.91;5052202;28;20045;-84
2021/01/27 04:53:40;;;;;;;14.63;6.63;;;;;;;3.52;68.73;99490.53;5053554;28;20053;-83
2021/01/27 04:56:28;;;;;;;8.48;5.03;;;;;;;3.56;69.19;99486.09;5030601;28;20103;-84
2021/01/27 04:59:08;;;;;;;12.27;6.80;;;;;;;3.55;69.48;99478.34;5046813;28;20076;-85
2021/01/27 05:01:47;;;;;;;9.80;6.13;;;;;;;3.56;70.80;99472.22;5053190;28;20448;-83
2021/01/27 05:04:19;;;;;;;10.55;6.28;;;;;;;3.54;70.04;99467.06;5054189;28;20068;-84
2021/01/27 05:06:51;;;;;;;9.52;6.18;;;;;;;3.54;70.02;99466.25;5044655;28;20055;-84
2021/01/27 05:09:42;;;;;;;9.13;5.88;;;;;;;3.55;70.19;99454.91;5052689;28;20056;-85
2021/01/27 05:12:09;;;;;;;8.93;5.65;;;;;;;3.56;70.86;99454.88;5047796;28;20049;-83
2021/01/27 05:14:35;;;;;;;7.95;5.47;;;;;;;3.55;70.75;99445.34;5052602;28;20060;-83
2021/01/27 05:17:10;;;;;;;8.38;5.43;;;;;;;3.53;69.35;99439.34;5054058;28;20060;-85
2021/01/27 05:19:37;;;;;;;7.93;5.32;;;;;;;3.55;70.60;99432.31;5053378;28;20124;-84
2021/01/27 05:22:06;;;;;;;8.38;5.55;;;;;;;3.56;70.46;99433.19;5046599;28;20053;-84
2021/01/27 05:24:33;;;;;;;9.18;5.80;;;;;;;3.58;70.59;99437.44;5052661;28;20051;-84
2021/01/27 05:27:06;;;;;;;8.43;5.05;;;;;;;3.60;70.80;99429.59;5046028;28;20110;-84
2021/01/27 05:29:51;;;;;;;14.23;6.05;;;;;;;3.59;69.72;99425.28;5052942;28;20559;-84
2021/01/27 05:32:20;;;;;;;7.70;5.15;;;;;;;3.63;71.01;99416.47;5053629;28;20057;-84
2021/01/27 05:34:49;;;;;;;10.60;5.75;;;;;;;3.65;70.70;99409.44;5044838;28;20056;-83
2021/01/27 05:37:31;;;;;;;12.80;5.53;;;;;;;3.64;69.72;99408.63;5053412;28;20045;-84
2021/01/27 05:40:16;;;;;;;8.25;5.80;;;;;;;3.62;68.65;99401.75;5046801;28;20075;-83
2021/01/27 05:42:43;;;;;;;7.88;4.93;;;;;;;3.65;70.06;99401.66;5052306;28;20060;-84
2021/01/27 05:45:37;;;;;;;11.88;5.80;;;;;;;3.60;67.80;99403.56;5047876;28;20128;-83
2021/01/27 05:48:22;;;;;;;;;;;;;;;3.62;67.33;99396.53;5052712;28;20056;-84
2021/01/27 05:50:51;;;;;;;8.52;4.60;;;;;;;3.64;70.21;99384.34;5053806;28;20003;-85
2021/01/27 05:53:27;;;;;;;7.95;4.78;;;;;;;3.61;69.38;99374.03;5052051;28;20049;-84
2021/01/27 05:56:08;;;;;;;8.95;4.50;;;;;;;3.59;69.05;99375.84;5052007;28;20045;-84
2021/01/27 05:58:39;;;;;;;12.43;5.20;;;;;;;3.60;70.00;99373.19;5052499;28;20053;-85
2021/01/27 06:01:13;;;;;;;8.73;4.57;;;;;;;3.59;69.48;99378.44;5049041;28;20067;-83
2021/01/27 06:03:49;;;;;;;7.07;4.75;;;;;;;3.58;69.01;99377.56;5056731;28;20064;-83
2021/01/27 06:06:16;;;;;;;11.07;5.30;;;;;;;3.62;70.73;99367.91;5056548;28;20485;-83
2021/01/27 06:08:54;;;;;;;6.40;4.65;;;;;;;3.61;69.54;99371.41;5057034;28;20056;-84
2021/01/27 06:11:22;;;;;;;7.47;4.43;;;;;;;3.64;70.70;99364.38;5052647;28;20052;-84
2021/01/27 06:13:51;;;;;;;6.07;4.25;;;;;;;3.65;70.58;99365.19;5047468;28;20053;-84
2021/01/27 06:16:22;;;;;;;6.95;4.57;;;;;;;3.67;70.70;99353.00;5056058;28;20454;-83
2021/01/27 06:18:48;;;;;;;6.40;3.92;;;;;;;3.69;70.78;99350.31;5057626;28;20076;-84
2021/01/27 06:21:57;;;;;;;7.75;4.22;;;;;;;3.67;68.80;99353.00;5056768;28;20056;-84
2021/01/27 06:24:51;;;;;;;5.40;3.67;;;;;;;3.69;69.32;99340.75;5051850;28;20053;-85
2021/01/27 06:27:39;;;;;;;5.95;3.75;;;;;;;3.72;70.15;99337.19;5052122;28;20076;-84
2021/01/27 06:30:42;;;;;;;5.57;3.75;;;;;;;3.71;69.70;99331.16;5056380;28;20053;-84
2021/01/27 06:33:39;;;;;;;6.63;3.30;;;;;;;3.72;69.49;99327.66;5050042;28;20048;-85
2021/01/27 06:36:29;;;;;;;5.53;3.55;;;;;;;3.75;70.13;99319.75;5056506;28;20080;-84
2021/01/27 06:39:04;;;;;;;8.70;3.95;;;;;;;3.77;70.18;99320.53;5048103;28;20045;-85
2021/01/27 06:41:45;;;;;;;6.10;3.38;;;;;;;3.80;70.70;99316.09;5055326;28;20111;-84
2021/01/27 06:44:36;;;;;;;5.00;3.15;;;;;;;3.77;69.86;99310.09;5056001;28;20049;-84
2021/01/27 06:47:21;;;;;;;5.25;3.40;;;;;;;3.75;68.79;99314.53;5049137;28;20049;-85
2021/01/27 06:50:03;;;;;;;6.80;3.55;;;;;;;3.74;67.56;99309.38;5054865;28;20067;-85
2021/01/27 06:53:06;;;;;;;6.18;3.75;;;;;;;3.73;69.26;99300.69;5055747;28;20049;-86
2021/01/27 06:56:11;;;;;;;6.07;3.67;;;;;;;3.74;69.40;99305.00;5053417;28;20056;-85
2021/01/27 06:59:07;;;;;;;6.05;4.20;;;;;;;3.74;68.66;99309.38;5050052;28;20057;-85
2021/01/27 07:02:07;;;;;;;9.55;4.90;;;;;;;3.71;68.76;99307.72;5090595;22;20041;-84
2021/01/27 07:05:02;;;;;;;9.70;6.03;;;;;;;3.68;69.03;99320.00;5037982;28;20138;-83
2021/01/27 07:07:34;;;;;;;9.50;5.00;;;;;;;3.67;68.98;99329.56;5055709;28;20068;-82
2021/01/27 07:10:12;;;;;;;6.25;3.78;;;;;;;3.67;70.13;99320.91;5055705;28;20126;-82
2021/01/27 07:12:42;;;;;;;9.05;5.40;;;;;;;3.65;70.16;99323.56;5054681;28;20060;-82
2021/01/27 07:15:35;;;;;;;8.82;4.97;;;;;;;3.63;69.68;99320.16;5055420;28;20045;-82
2021/01/27 07:18:11;;;;;;;;;;;;;;;3.63;68.65;99322.78;5038125;28;20104;-83
2021/01/27 07:20:56;;;;;;;6.25;4.40;;;;;;;3.65;70.74;99320.94;5055329;28;19963;-82
2021/01/27 07:23:31;;;;;;;9.80;5.53;;;;;;;3.64;70.77;99321.88;5055172;28;20053;-82
2021/01/27 07:26:13;;;;;;;8.95;5.93;;;;;;;3.59;69.59;99318.59;5055524;28;20045;-82
2021/01/27 07:29:17;;;;;;;7.73;5.20;;;;;;;3.58;69.56;99314.25;5055061;28;20512;-83
2021/01/27 07:31:52;;;;;;;10.00;5.55;;;;;;;3.59;69.80;99321.19;5054947;28;20056;-84
2021/01/27 07:34:28;;;;;;;12.02;5.60;;;;;;;3.58;69.95;99342.88;5054743;28;20135;-84
2021/01/27 07:37:09;;;;;;;8.90;5.70;;;;;;;3.58;70.05;99324.66;5055045;28;20056;-83
2021/01/27 07:39:48;;;;;;;11.10;5.35;;;;;;;3.59;70.05;99336.81;5054847;28;20060;-82
2021/01/27 07:42:25;;;;;;;8.15;5.57;;;;;;;3.59;70.45;99337.63;5054876;28;20265;-82
2021/01/27 07:44:56;;;;;;;11.07;5.88;;;;;;;3.62;70.56;99347.06;5054723;28;20049;-83
2021/01/27 07:47:31;;;;;;;8.50;5.40;;;;;;;3.63;70.88;99328.81;5054941;28;20452;-83
2021/01/27 07:49:58;;;;;;;9.15;5.53;;;;;;;3.64;70.89;99327.94;5037059;28;20053;-82
2021/01/27 07:52:29;;;;;;;8.07;5.45;;;;;;;3.67;71.47;99334.78;5054493;28;20479;-82
2021/01/27 07:55:21;;;;;;;7.80;5.28;;;;;;;3.65;70.25;99318.34;5054764;28;20079;-82
2021/01/27 07:57:57;;;;;;;8.50;4.90;;;;;;;3.69;70.71;99332.97;5054690;28;20060;-84
2021/01/27 08:00:54;;;;;;;9.90;4.68;;;;;;;3.65;69.79;99323.56;5054472;28;20728;-82
2021/01/27 08:03:42;;;;;;;10.07;5.22;;;;;;;3.61;70.04;99309.81;5053501;28;20523;-82
2021/01/27 08:06:17;;;;;;;9.73;5.45;;;;;;;3.57;70.21;99320.38;5054472;28;20048;-82
2021/01/27 08:08:53;;;;;;;8.18;5.03;;;;;;;3.49;70.77;99310.25;5054098;28;20076;-82
2021/01/27 08:11:31;;;;;;;8.90;5.82;;;;;;;3.44;70.77;99310.38;5053905;28;20489;-82
2021/01/27 08:13:58;;;;;;;8.23;4.65;;;;;;;3.39;71.50;99305.34;5054116;28;20053;-83
2021/01/27 08:16:34;;;;;;;8.35;5.28;;;;;;;3.34;71.26;99298.63;5047085;28;20490;-82
2021/01/27 08:19:10;;;;;;;8.85;5.13;;;;;;;3.29;71.30;99297.94;5051873;28;20044;-81
2021/01/27 08:21:46;;;;;;;7.68;4.90;;;;;;;3.26;71.64;99293.69;5053671;28;20076;-81
2021/01/27 08:24:34;;;;;;;5.85;4.65;;;;;;;3.22;71.50;99292.91;5051877;28;20048;-81
2021/01/27 08:27:09;;;;;;;6.57;5.00;;;;;;;3.20;72.03;99288.66;5053206;28;20056;-83
2021/01/27 08:29:38;;;;;;;9.18;5.72;;;;;;;3.21;72.13;99285.19;5052926;28;20057;-83
2021/01/27 08:32:23;;;;;;;6.53;4.90;;;;;;;3.17;72.18;99284.44;5052693;28;20118;-82
2021/01/27 08:34:51;;;;;;;6.82;4.88;;;;;;;3.18;72.52;99282.69;5053026;28;20041;-83
2021/01/27 08:37:23;;;;;;;8.13;5.65;;;;;;;3.15;72.55;99283.66;5052849;28;20052;-82
2021/01/27 08:40:14;;;;;;;5.35;4.05;;;;;;;3.13;72.27;99283.69;5052782;28;20522;-80
2021/01/27 08:42:45;;;;;;;7.13;5.72;;;;;;;3.14;72.98;99289.72;5052219;28;20501;-81
2021/01/27 08:45:23;;;;;;;8.73;5.20;;;;;;;3.10;72.81;99283.78;5052954;28;20052;-80
2021/01/27 08:47:57;;;;;;;6.78;5.80;;;;;;;3.12;73.06;99286.34;5036274;28;20060;-81
2021/01/27 08:50:46;;;;;;;9.13;6.60;;;;;;;3.08;72.75;99283.00;5052491;28;20103;-82
2021/01/27 08:53:15;;;;;;;8.90;5.75;;;;;;;3.11;72.84;99287.25;5052545;28;20049;-82
2021/01/27 08:55:44;;;;;;;8.75;6.20;;;;;;;3.11;73.31;99288.06;5052787;28;20114;-82
2021/01/27 08:58:16;;;;;;;7.95;5.97;;;;;;;3.11;72.96;99284.66;5051735;28;20045;-83
2021/01/27 09:00:45;;;;;;;7.78;5.70;;;;;;;3.13;73.41;99280.22;5053002;28;20516;-82
2021/01/27 09:03:47;;;;;;;8.77;5.95;;;;;;;3.11;73.36;99269.03;5052283;28;20048;-80
2021/01/27 09:06:45;;;;;;;10.25;6.80;;;;;;;3.10;72.95;99270.78;5053331;28;20049;-80
2021/01/27 09:09:22;;;;;;;7.85;5.97;;;;;;;3.13;72.87;99275.03;5053062;28;20072;-81
2021/01/27 09:11:55;;;;;;;7.38;5.55;;;;;;;3.09;73.31;99269.09;5053205;28;20497;-82
2021/01/27 09:14:21;;;;;;;6.40;5.30;;;;;;;3.10;73.65;99275.16;5053102;28;20090;-82
2021/01/27 09:16:47;;;;;;;7.63;5.82;;;;;;;3.08;73.70;99274.34;5053037;28;20056;-80
2021/01/27 09:19:17;;;;;;;6.75;5.32;;;;;;;3.07;73.49;99264.84;5032626;28;20049;-79
2021/01/27 09:22:01;;;;;;;7.75;6.03;;;;;;;3.05;73.98;99264.03;5032687;28;20528;-80
2021/01/27 09:24:45;;;;;;;6.90;5.78;;;;;;;3.06;73.74;99258.78;5032986;28;20052;-81
2021/01/27 09:27:17;;;;;;;6.45;5.45;;;;;;;3.10;74.11;99251.75;5032936;28;20050;-80
2021/01/27 09:29:43;;;;;;;6.78;5.72;;;;;;;3.11;74.00;99259.47;5032893;28;20465;-80
2021/01/27 09:32:17;;;;;;;7.90;5.35;;;;;;;3.13;73.92;99264.63;5030342;28;20088;-80
2021/01/27 09:34:49;;;;;;;7.45;5.65;;;;;;;3.15;74.10;99256.78;5030628;28;20530;-80
2021/01/27 09:37:20;;;;;;;6.53;5.20;;;;;;;3.17;73.91;99266.22;5035884;28;20057;-80
2021/01/27 09:39:55;;;;;;;7.13;5.30;;;;;;;3.18;74.03;99260.09;5036959;28;20059;-80
2021/01/27 09:42:27;;;;;;;6.97;5.47;;;;;;;3.19;74.29;99261.84;5036315;28;20132;-80
2021/01/27 09:45:00;;;;;;;7.75;5.85;;;;;;;3.22;74.33;99266.91;5036032;28;20054;-80
2021/01/27 09:47:27;;;;;;;6.78;5.72;;;;;;;3.26;74.40;99265.06;5036928;28;20095;-81
2021/01/27 09:49:57;;;;;;;7.72;6.25;;;;;;;3.28;73.98;99280.63;5036810;28;20050;-82
2021/01/27 09:52:26;;;;;;;7.63;6.13;;;;;;;3.26;74.23;99271.09;5036188;28;20107;-82
2021/01/27 09:54:57;;;;;;;6.93;5.80;;;;;;;3.26;74.34;99271.09;5034736;28;20103;-83
2021/01/27 09:57:25;;;;;;;8.00;5.80;;;;;;;3.26;74.05;99260.69;5036390;28;20486;-83
2021/01/27 09:59:56;;;;;;;6.70;5.63;;;;;;;3.26;74.09;99255.50;5036317;28;20053;-83
2021/01/27 10:02:32;;;;;;;8.23;5.68;;;;;;;3.23;73.94;99253.03;5035440;28;20045;-82
2021/01/27 10:04:59;;;;;;;8.20;5.93;;;;;;;3.25;74.33;99261.59;5036486;28;20049;-83
2021/01/27 10:07:34;;;;;;;7.28;5.97;;;;;;;3.22;74.19;99263.47;5036016;28;20049;-83
2021/01/27 10:10:08;;;;;;;8.05;6.03;;;;;;;3.18;73.58;99265.31;5018629;28;20057;-83
2021/01/27 10:12:35;;;;;;;7.28;5.85;;;;;;;3.20;74.04;99258.31;5035809;28;20056;-83
2021/01/27 10:15:20;;;;;;;9.15;5.85;;;;;;;3.14;73.87;99263.72;5034358;28;20064;-83
2021/01/27 10:17:49;;;;;;;9.10;6.68;;;;;;;3.14;74.13;99276.72;5035984;28;20045;-80
2021/01/27 10:20:29;;;;;;;7.25;6.07;;;;;;;3.13;74.61;99269.81;5036177;28;20045;-81
2021/01/27 10:23:01;;;;;;;8.65;7.35;;;;;;;3.08;74.20;99261.34;5035311;28;20497;-81
2021/01/27 10:25:35;;;;;;;8.52;6.82;;;;;;;3.08;74.32;99258.75;5018704;28;20046;-81
2021/01/27 10:28:05;;;;;;;9.52;7.22;;;;;;;3.08;74.94;99256.13;5035796;28;20054;-81
2021/01/27 10:30:55;;;;;;;9.30;7.50;;;;;;;3.06;74.35;99247.56;5035729;28;20133;-81
2021/01/27 10:33:44;;;;;;;8.85;7.22;;;;;;;3.05;74.68;99248.44;5043945;28;20041;-83
2021/01/27 10:36:41;;;;;;;9.85;7.20;;;;;;;3.07;74.63;99257.03;5053640;28;20103;-84
2021/01/27 10:39:31;;;;;;;10.50;7.75;;;;;;;3.05;75.04;99246.69;5055619;28;20394;-83
2021/01/27 10:42:09;;;;;;;13.25;8.75;;;;;;;3.06;74.47;99263.16;5054781;28;20053;-82
2021/01/27 10:45:13;;;;;;;9.70;7.22;;;;;;;3.07;74.55;99247.47;5055494;28;20080;-83
2021/01/27 10:47:41;;;;;;;10.70;8.30;;;;;;;3.11;74.86;99241.25;5054514;28;20504;-83
2021/01/27 10:50:08;;;;;;;11.13;8.32;;;;;;;3.09;74.88;99227.47;5055225;28;20056;-83
2021/01/27 10:52:36;;;;;;;11.13;8.18;;;;;;;3.10;75.04;99229.19;5054686;28;20053;-83
2021/01/27 10:55:10;;;;;;;10.07;7.78;;;;;;;3.09;74.70;99221.41;5055144;28;20075;-83
2021/01/27 10:57:36;;;;;;;10.10;7.85;;;;;;;3.11;75.22;99224.84;5037382;28;20048;-83
2021/01/27 11:00:06;;;;;;;8.75;7.78;;;;;;;3.10;75.17;99223.16;5055507;28;20049;-83
2021/01/27 11:02:32;;;;;;;10.93;8.77;;;;;;;3.13;74.88;99216.06;5036831;28;20123;-82
2021/01/27 11:04:58;;;;;;;13.05;8.55;;;;;;;3.14;75.10;99216.91;5055197;28;20049;-81
2021/01/27 11:07:24;;;;;;;10.88;8.15;;;;;;;3.16;74.87;99209.91;5055465;28;20049;-81
2021/01/27 11:09:51;;;;;;;9.40;8.02;;;;;;;3.15;75.11;99210.81;5055273;28;20053;-81
2021/01/27 11:12:17;;;;;;;9.40;8.38;;;;;;;3.16;74.60;99214.25;5049914;28;20057;-80
2021/01/27 11:14:43;;;;;;;11.35;8.43;;;;;;;3.16;75.06;99212.50;5053695;28;20099;-80
2021/01/27 11:17:09;;;;;;;10.18;8.57;;;;;;;3.16;74.91;99217.72;5054675;28;20045;-80
2021/01/27 11:19:35;;;;;;;11.05;8.32;;;;;;;3.16;75.22;99211.66;5054409;28;20095;-80
2021/01/27 11:22:02;;;;;;;12.50;9.48;;;;;;;3.16;75.06;99217.72;5053871;28;20060;-80
2021/01/27 11:24:28;;;;;;;12.07;9.30;;;;;;;3.17;75.34;99216.81;5054306;28;20057;-82
2021/01/27 11:26:54;;;;;;;16.65;8.90;;;;;;;3.16;74.99;99212.50;5054425;28;20107;-82
2021/01/27 11:29:21;;;;;;;10.38;8.73;;;;;;;3.16;75.44;99211.66;5054176;28;20493;-82
2021/01/27 11:31:47;;;;;;;12.27;9.13;;;;;;;3.17;75.11;99203.81;5054404;28;20049;-82
2021/01/27 11:34:13;;;;;;;12.10;9.77;;;;;;;3.17;75.42;99202.97;5053723;28;20045;-82
2021/01/27 11:36:40;;;;;;;24.45;12.23;;;;;;;3.16;75.14;99191.72;5054093;28;20055;-82
2021/01/27 11:39:09;;;;;;;12.23;9.93;;;;;;;3.16;75.71;99196.91;5053821;28;20062;-82
2021/01/27 11:41:35;;;;;;;13.65;10.43;;;;;;;3.18;75.46;99191.66;5054125;28;20059;-82
2021/01/27 11:44:02;;;;;;;15.57;10.85;;;;;;;3.17;75.46;99193.41;5053398;28;20053;-82
2021/01/27 11:46:28;;;;;;;15.60;10.80;;;;;;;3.21;75.51;99188.97;5036322;28;20056;-82
2021/01/27 11:48:54;;;;;;;14.25;10.70;;;;;;;3.22;76.08;99183.66;5054020;28;20048;-82
2021/01/27 11:51:20;;;;;;;12.90;10.38;;;;;;;3.24;75.64;99174.06;5053313;28;20044;-80
2021/01/27 11:53:46;;;;;;;15.32;12.27;;;;;;;3.24;75.74;99166.28;5051714;28;20539;-80
2021/01/27 11:56:12;;;;;;;14.70;11.60;;;;;;;3.26;75.81;99168.81;5054065;28;20404;-80
2021/01/27 11:58:39;;;;;;;15.00;12.18;;;;;;;3.25;75.74;99170.56;5053757;28;20053;-81
2021/01/27 12:01:05;;;;;;;14.20;11.18;;;;;;;3.26;75.35;99155.81;5053945;28;20063;-82
2021/01/27 12:03:32;;;;;;;14.52;10.73;;;;;;;3.24;75.37;99142.88;5053687;28;20057;-82
2021/01/27 12:05:59;;;;;;;12.50;9.65;;;;;;;3.24;75.54;99145.47;5054065;28;20128;-80
2021/01/27 12:08:25;;;;;;;13.50;10.40;;;;;;;3.25;75.94;99154.97;5054133;28;20053;-81